createdAt,value
2019-04-11T00:01:05.981Z,33.73
2019-04-11T00:06:12.688Z,32.00
2019-04-11T00:11:19.848Z,28.55
2019-04-11T00:16:26.153Z,38.50
2019-04-11T00:21:32.954Z,53.80
2019-04-11T00:26:40.211Z,66.17
2019-04-11T00:31:47.943Z,65.42
2019-04-11T00:36:54.883Z,50.33
2019-04-11T00:42:01.947Z,43.58
2019-04-11T00:47:08.921Z,35.17
2019-04-11T00:52:16.044Z,27.40
2019-04-11T00:57:23.059Z,26.15
2019-04-11T01:02:29.460Z,30.68
2019-04-11T01:07:35.552Z,32.45
2019-04-11T01:12:42.945Z,24.98
2019-04-11T01:17:49.727Z,19.25
2019-04-11T01:22:56.424Z,26.45
2019-04-11T01:28:02.870Z,27.22
2019-04-11T01:33:08.968Z,25.65
2019-04-11T01:38:16.438Z,32.28
2019-04-11T01:43:23.849Z,34.73
2019-04-11T01:48:36.730Z,26.42
2019-04-11T01:58:48.980Z,25.15
2019-04-11T02:04:13.934Z,23.47
2019-04-11T02:09:20.694Z,24.20
2019-04-11T02:14:27.886Z,24.05
2019-04-11T02:19:34.453Z,23.40
2019-04-11T02:24:48.001Z,19.75
2019-04-11T02:29:55.146Z,21.33
2019-04-11T02:35:04.358Z,25.00
2019-04-11T02:40:11.043Z,23.15
2019-04-11T02:45:34.014Z,21.93
2019-04-11T02:50:26.513Z,24.32
2019-04-11T02:55:35.628Z,21.50
2019-04-11T03:00:42.305Z,25.90
2019-04-11T03:05:50.727Z,18.60
2019-04-11T03:10:57.696Z,20.70
2019-04-11T03:16:19.065Z,20.32
2019-04-11T03:21:20.011Z,17.75
2019-04-11T03:26:22.636Z,20.68
2019-04-11T03:37:15.578Z,23.62
2019-04-11T03:42:04.011Z,23.02
2019-04-11T03:47:11.157Z,27.67
2019-04-11T03:52:03.391Z,18.95
2019-04-11T03:57:09.845Z,25.97
2019-04-11T04:02:17.018Z,28.95
2019-04-11T04:07:23.609Z,97.65
2019-04-11T04:12:31.366Z,33.33
2019-04-11T04:17:55.780Z,24.72
2019-04-11T04:23:12.396Z,29.63
2019-04-11T04:28:19.090Z,24.67
2019-04-11T04:33:26.578Z,21.87
2019-04-11T04:38:35.534Z,25.85
2019-04-11T04:43:44.316Z,31.80
2019-04-11T04:48:51.478Z,22.95
2019-04-11T04:53:59.576Z,22.07
2019-04-11T04:59:07.097Z,23.75
2019-04-11T05:04:13.975Z,25.48
2019-04-11T05:09:21.479Z,25.08
2019-04-11T05:14:29.424Z,30.00
2019-04-11T05:19:38.262Z,28.60
2019-04-11T05:24:45.367Z,28.50
2019-04-11T05:29:51.635Z,31.37
2019-04-11T05:34:58.495Z,25.62
2019-04-11T05:40:05.199Z,35.65
2019-04-11T05:45:17.158Z,25.77
2019-04-11T05:50:30.171Z,29.70
2019-04-11T05:55:41.420Z,30.70
2019-04-11T06:00:58.278Z,27.22
2019-04-11T06:06:24.662Z,29.12
2019-04-11T06:12:03.233Z,35.23
2019-04-11T06:17:12.061Z,35.75
2019-04-11T06:22:19.823Z,41.80
2019-04-11T06:27:38.499Z,35.28
2019-04-11T06:33:02.521Z,40.83
2019-04-11T06:38:43.479Z,47.23
2019-04-11T06:44:10.264Z,75.17
2019-04-11T06:49:26.688Z,85.42
2019-04-11T06:54:41.366Z,99.10
2019-04-11T06:59:48.414Z,104.90
2019-04-11T07:04:58.153Z,105.55
2019-04-11T07:10:06.768Z,101.55
2019-04-11T07:15:18.943Z,102.87
2019-04-11T07:21:02.873Z,102.00
2019-04-11T07:26:37.292Z,103.10
2019-04-11T07:32:00.879Z,97.88
2019-04-11T07:37:32.610Z,100.10
2019-04-11T07:43:03.781Z,104.93
2019-04-11T07:48:12.904Z,114.00
2019-04-11T07:53:19.813Z,109.00
2019-04-11T07:58:40.561Z,110.50
2019-04-11T08:04:19.877Z,103.22
2019-04-11T08:09:39.719Z,107.32
2019-04-11T08:15:07.162Z,102.50
2019-04-11T08:20:31.236Z,94.75
2019-04-11T08:26:09.468Z,94.35
2019-04-11T08:31:27.091Z,85.15
2019-04-11T08:36:50.672Z,84.15
2019-04-11T08:42:12.854Z,83.05
2019-04-11T08:47:20.424Z,76.22
2019-04-11T08:52:46.511Z,74.50
2019-04-11T08:58:00.540Z,71.22
2019-04-11T09:03:31.539Z,62.78
2019-04-11T09:08:59.769Z,61.23
2019-04-11T09:14:24.287Z,59.25
2019-04-11T09:19:55.381Z,53.73
2019-04-11T09:25:30.411Z,51.65
2019-04-11T09:30:55.221Z,49.03
2019-04-11T09:36:03.829Z,54.55
2019-04-11T09:41:30.193Z,50.50
2019-04-11T09:46:59.164Z,50.43
2019-04-11T09:52:24.836Z,48.05
2019-04-11T09:57:34.857Z,47.75
2019-04-11T10:03:02.950Z,46.42
2019-04-11T10:08:19.024Z,45.67
2019-04-11T10:13:37.336Z,47.58
2019-04-11T10:18:59.935Z,42.90
2019-04-11T10:30:15.724Z,42.15
2019-04-11T10:35:56.725Z,44.42
2019-04-11T10:41:20.885Z,40.50
2019-04-11T10:46:41.683Z,41.00
2019-04-11T10:52:00.370Z,43.73
2019-04-11T10:57:28.131Z,40.28
2019-04-11T11:03:04.374Z,34.73
2019-04-11T11:08:27.692Z,35.45
2019-04-11T11:13:51.503Z,34.88
2019-04-11T11:19:46.602Z,34.75
2019-04-11T11:24:54.691Z,42.75
2019-04-11T11:30:29.581Z,37.98
2019-04-11T11:35:52.437Z,56.95
2019-04-11T11:41:16.415Z,54.40
2019-04-11T11:46:44.639Z,52.13
2019-04-11T11:52:11.315Z,52.23
2019-04-11T11:57:28.833Z,53.20
2019-04-11T12:02:51.990Z,48.90
2019-04-11T12:08:18.208Z,51.18
2019-04-11T12:13:47.346Z,45.05
2019-04-11T12:19:22.312Z,50.92
2019-04-11T12:24:40.543Z,50.48
2019-04-11T12:30:03.221Z,58.33
2019-04-11T12:35:26.280Z,68.20
2019-04-11T12:41:01.622Z,60.83
2019-04-11T12:46:30.048Z,64.17
2019-04-11T12:51:50.444Z,70.15
2019-04-11T12:57:27.846Z,70.95
2019-04-11T13:02:51.575Z,70.47
2019-04-11T13:08:19.591Z,76.92
2019-04-11T13:13:36.194Z,84.75
2019-04-11T13:19:04.035Z,81.78
2019-04-11T13:24:48.555Z,87.62
2019-04-11T13:30:13.611Z,76.37
2019-04-11T13:35:26.425Z,80.65
2019-04-11T13:41:03.283Z,73.97
2019-04-11T13:46:28.482Z,84.52
2019-04-11T13:51:56.474Z,79.47
2019-04-11T13:57:30.457Z,85.03
2019-04-11T14:02:51.267Z,81.55
2019-04-11T14:07:56.739Z,91.15
2019-04-11T14:13:03.513Z,87.78
2019-04-11T14:18:25.277Z,87.35
2019-04-11T14:23:56.389Z,88.72
2019-04-11T14:29:10.120Z,92.45
2019-04-11T14:34:35.448Z,88.05
2019-04-11T14:39:44.204Z,92.10
2019-04-11T14:44:50.753Z,84.42
2019-04-11T14:50:01.527Z,86.85
2019-04-11T14:55:08.781Z,83.25
2019-04-11T15:00:34.432Z,87.90
2019-04-11T15:05:53.649Z,84.85
2019-04-11T15:11:09.706Z,83.25
2019-04-11T15:16:33.851Z,85.47
2019-04-11T15:22:00.075Z,84.40
2019-04-11T15:27:23.944Z,82.62
2019-04-11T15:32:47.399Z,86.45
2019-04-11T15:38:24.400Z,86.85
2019-04-11T15:43:48.584Z,88.12
2019-04-11T15:49:20.398Z,80.62
2019-04-11T15:54:45.272Z,84.32
2019-04-11T16:00:19.239Z,84.58
2019-04-11T16:05:51.469Z,86.20
2019-04-11T16:11:15.378Z,80.28
2019-04-11T16:16:26.211Z,83.78
2019-04-11T16:21:40.503Z,80.15
2019-04-11T16:27:00.970Z,86.20
2019-04-11T16:32:11.686Z,85.55
2019-04-11T16:37:18.564Z,83.10
2019-04-11T16:42:53.792Z,83.40
2019-04-11T16:48:02.748Z,80.25
2019-04-11T16:53:11.551Z,82.82
2019-04-11T16:58:19.496Z,79.37
2019-04-11T17:03:25.685Z,77.92
2019-04-11T17:08:59.978Z,81.75
2019-04-11T17:14:07.266Z,83.78
2019-04-11T17:19:13.434Z,75.32
2019-04-11T17:24:19.516Z,71.77
2019-04-11T17:29:25.591Z,72.30
2019-04-11T17:34:32.452Z,75.10
2019-04-11T17:39:39.554Z,70.47
2019-04-11T17:44:45.778Z,68.00
2019-04-11T17:49:52.063Z,68.72
2019-04-11T17:55:00.130Z,70.32
2019-04-11T18:00:08.674Z,71.55
2019-04-11T18:05:16.704Z,75.20
2019-04-11T18:10:25.585Z,67.62
2019-04-11T18:15:31.749Z,68.52
2019-04-11T18:20:38.901Z,66.47
2019-04-11T18:25:45.188Z,69.70
2019-04-11T18:30:53.827Z,68.62
2019-04-11T18:36:01.866Z,68.87
2019-04-11T18:41:07.287Z,68.85
2019-04-11T18:46:13.911Z,71.95
2019-04-11T18:51:20.869Z,61.50
2019-04-11T18:56:28.160Z,63.38
2019-04-11T19:01:34.334Z,62.85
2019-04-11T19:06:42.641Z,69.58
2019-04-11T19:11:48.435Z,86.57
2019-04-11T19:16:54.564Z,90.42
2019-04-11T19:22:00.795Z,84.52
2019-04-11T19:27:06.993Z,67.62
2019-04-11T19:32:14.125Z,63.63
2019-04-11T19:37:20.306Z,62.98
2019-04-11T19:42:26.688Z,65.30
2019-04-11T19:47:32.882Z,65.57
2019-04-11T19:52:45.251Z,65.37
2019-04-11T19:57:47.225Z,64.12
2019-04-11T20:02:54.144Z,68.02
2019-04-11T20:08:01.301Z,58.05
2019-04-11T20:13:07.558Z,70.87
2019-04-11T20:18:13.657Z,68.15
2019-04-11T20:23:19.937Z,69.97
2019-04-11T20:28:26.881Z,66.72
2019-04-11T20:33:34.670Z,63.52
2019-04-11T20:38:41.204Z,71.55
2019-04-11T20:43:47.414Z,65.60
2019-04-11T20:48:54.689Z,64.10
2019-04-11T20:54:01.078Z,63.95
2019-04-11T20:59:10.029Z,60.55
2019-04-11T21:04:15.041Z,66.67
2019-04-11T21:09:21.730Z,70.78
2019-04-11T21:14:27.757Z,72.03
2019-04-11T21:19:34.104Z,66.55
2019-04-11T21:24:40.165Z,67.32
2019-04-11T21:29:46.011Z,65.22
2019-04-11T21:34:52.303Z,67.10
2019-04-11T21:39:58.498Z,68.65
2019-04-11T21:45:06.241Z,71.07
2019-04-11T21:50:13.244Z,62.40
2019-04-11T21:55:19.415Z,64.17
2019-04-11T22:00:36.351Z,71.82
2019-04-11T22:05:42.553Z,73.05
2019-04-11T22:10:48.807Z,68.17
2019-04-11T22:15:55.029Z,64.05
2019-04-11T22:21:01.159Z,64.53
2019-04-11T22:26:07.518Z,65.65
2019-04-11T22:31:13.665Z,71.10
2019-04-11T22:36:19.927Z,59.08
2019-04-11T22:41:26.129Z,54.85
2019-04-11T22:46:32.227Z,59.95
2019-04-11T22:51:42.710Z,68.70
2019-04-11T22:56:46.238Z,59.98
2019-04-11T23:01:53.865Z,62.85
2019-04-11T23:07:00.106Z,69.22
2019-04-11T23:12:06.143Z,60.80
2019-04-11T23:17:14.192Z,58.87
2019-04-11T23:22:20.234Z,54.20
2019-04-11T23:27:26.449Z,63.85
2019-04-11T23:32:32.586Z,56.13
2019-04-11T23:37:51.999Z,58.63
2019-04-11T23:42:58.287Z,63.60
2019-04-11T23:48:04.509Z,57.85
2019-04-11T23:53:10.614Z,57.88
2019-04-11T23:58:16.985Z,55.17
